sensor_id;sensor_type;location;lat;lon;timestamp;P1;durP1;ratioP1;P2;durP2;ratioP2
7179;SDS011;3631;42.152;24.756;2023-11-22T00:02:16;31.30;;;17.43;;
7179;SDS011;3631;42.152;24.756;2023-11-22T00:04:43;29.87;;;16.53;;
7179;SDS011;3631;42.152;24.756;2023-11-22T00:07:10;32.33;;;16.70;;
7179;SDS011;3631;42.152;24.756;2023-11-22T00:09:37;30.27;;;17.43;;
7179;SDS011;3631;42.152;24.756;2023-11-22T00:12:04;29.47;;;16.70;;
7179;SDS011;3631;42.152;24.756;2023-11-22T00:14:33;27.10;;;16.40;;
7179;SDS011;3631;42.152;24.756;2023-11-22T00:17:01;33.60;;;17.57;;
7179;SDS011;3631;42.152;24.756;2023-11-22T00:19:28;31.13;;;17.73;;
7179;SDS011;3631;42.152;24.756;2023-11-22T00:21:55;30.53;;;17.23;;
7179;SDS011;3631;42.152;24.756;2023-11-22T00:24:22;31.47;;;17.93;;
7179;SDS011;3631;42.152;24.756;2023-11-22T00:26:49;32.63;;;17.67;;
7179;SDS011;3631;42.152;24.756;2023-11-22T00:29:16;25.53;;;16.90;;
7179;SDS011;3631;42.152;24.756;2023-11-22T00:31:44;31.03;;;17.23;;
7179;SDS011;3631;42.152;24.756;2023-11-22T00:34:11;27.50;;;16.57;;
7179;SDS011;3631;42.152;24.756;2023-11-22T00:36:38;28.17;;;17.13;;
7179;SDS011;3631;42.152;24.756;2023-11-22T00:39:05;34.47;;;16.47;;
7179;SDS011;3631;42.152;24.756;2023-11-22T00:41:35;26.80;;;17.17;;
7179;SDS011;3631;42.152;24.756;2023-11-22T00:44:02;29.73;;;17.47;;
7179;SDS011;3631;42.152;24.756;2023-11-22T00:46:31;39.17;;;18.93;;
7179;SDS011;3631;42.152;24.756;2023-11-22T00:48:59;30.50;;;17.30;;
7179;SDS011;3631;42.152;24.756;2023-11-22T00:51:26;28.67;;;16.93;;
7179;SDS011;3631;42.152;24.756;2023-11-22T00:53:53;34.70;;;18.17;;
7179;SDS011;3631;42.152;24.756;2023-11-22T00:56:20;32.47;;;18.17;;
7179;SDS011;3631;42.152;24.756;2023-11-22T00:58:47;33.97;;;17.40;;
7179;SDS011;3631;42.152;24.756;2023-11-22T01:01:15;27.63;;;17.43;;
7179;SDS011;3631;42.152;24.756;2023-11-22T01:03:42;30.37;;;17.70;;
7179;SDS011;3631;42.152;24.756;2023-11-22T01:06:10;28.33;;;17.07;;
7179;SDS011;3631;42.152;24.756;2023-11-22T01:08:37;34.07;;;17.37;;
7179;SDS011;3631;42.152;24.756;2023-11-22T01:11:04;27.87;;;18.13;;
7179;SDS011;3631;42.152;24.756;2023-11-22T01:13:33;28.07;;;16.57;;
7179;SDS011;3631;42.152;24.756;2023-11-22T01:16:06;26.33;;;16.40;;
7179;SDS011;3631;42.152;24.756;2023-11-22T01:18:33;34.90;;;16.77;;
7179;SDS011;3631;42.152;24.756;2023-11-22T01:21:00;29.13;;;16.87;;
7179;SDS011;3631;42.152;24.756;2023-11-22T01:23:30;27.23;;;15.97;;
7179;SDS011;3631;42.152;24.756;2023-11-22T01:25:57;26.07;;;16.77;;
7179;SDS011;3631;42.152;24.756;2023-11-22T01:28:25;26.93;;;16.50;;
7179;SDS011;3631;42.152;24.756;2023-11-22T01:30:52;28.00;;;17.27;;
7179;SDS011;3631;42.152;24.756;2023-11-22T01:33:19;29.90;;;15.70;;
7179;SDS011;3631;42.152;24.756;2023-11-22T01:35:46;24.37;;;16.33;;
7179;SDS011;3631;42.152;24.756;2023-11-22T01:38:13;24.33;;;16.23;;
7179;SDS011;3631;42.152;24.756;2023-11-22T01:40:44;25.77;;;15.93;;
7179;SDS011;3631;42.152;24.756;2023-11-22T01:43:13;24.73;;;15.63;;
7179;SDS011;3631;42.152;24.756;2023-11-22T01:45:41;25.03;;;15.23;;
7179;SDS011;3631;42.152;24.756;2023-11-22T01:48:09;26.80;;;16.10;;
7179;SDS011;3631;42.152;24.756;2023-11-22T01:50:37;23.40;;;15.00;;
7179;SDS011;3631;42.152;24.756;2023-11-22T01:53:05;26.93;;;15.43;;
7179;SDS011;3631;42.152;24.756;2023-11-22T01:55:33;31.03;;;16.50;;
7179;SDS011;3631;42.152;24.756;2023-11-22T01:58:01;25.90;;;16.30;;
7179;SDS011;3631;42.152;24.756;2023-11-22T02:00:29;27.50;;;16.47;;
7179;SDS011;3631;42.152;24.756;2023-11-22T02:03:02;26.23;;;16.73;;
7179;SDS011;3631;42.152;24.756;2023-11-22T02:05:29;26.70;;;15.80;;
7179;SDS011;3631;42.152;24.756;2023-11-22T02:07:56;28.13;;;15.83;;
7179;SDS011;3631;42.152;24.756;2023-11-22T02:10:24;23.87;;;15.77;;
7179;SDS011;3631;42.152;24.756;2023-11-22T02:12:51;24.53;;;15.83;;
7179;SDS011;3631;42.152;24.756;2023-11-22T02:15:19;26.00;;;16.57;;
7179;SDS011;3631;42.152;24.756;2023-11-22T02:17:46;28.63;;;16.47;;
7179;SDS011;3631;42.152;24.756;2023-11-22T02:20:13;29.60;;;17.13;;
7179;SDS011;3631;42.152;24.756;2023-11-22T02:22:43;28.90;;;16.53;;
7179;SDS011;3631;42.152;24.756;2023-11-22T02:25:12;28.23;;;16.73;;
7179;SDS011;3631;42.152;24.756;2023-11-22T02:27:40;29.20;;;16.80;;
7179;SDS011;3631;42.152;24.756;2023-11-22T02:30:07;28.17;;;17.10;;
7179;SDS011;3631;42.152;24.756;2023-11-22T02:32:36;28.37;;;16.47;;
7179;SDS011;3631;42.152;24.756;2023-11-22T02:35:04;27.03;;;16.70;;
7179;SDS011;3631;42.152;24.756;2023-11-22T02:37:32;27.03;;;16.83;;
7179;SDS011;3631;42.152;24.756;2023-11-22T02:40:00;29.10;;;16.57;;
7179;SDS011;3631;42.152;24.756;2023-11-22T02:42:33;32.90;;;16.60;;
7179;SDS011;3631;42.152;24.756;2023-11-22T02:45:01;27.10;;;17.07;;
7179;SDS011;3631;42.152;24.756;2023-11-22T02:47:28;28.93;;;16.00;;
7179;SDS011;3631;42.152;24.756;2023-11-22T02:49:55;28.90;;;18.23;;
7179;SDS011;3631;42.152;24.756;2023-11-22T02:52:22;37.57;;;19.30;;
7179;SDS011;3631;42.152;24.756;2023-11-22T02:54:51;34.83;;;17.77;;
7179;SDS011;3631;42.152;24.756;2023-11-22T02:57:18;31.97;;;18.43;;
7179;SDS011;3631;42.152;24.756;2023-11-22T02:59:47;27.97;;;17.00;;
7179;SDS011;3631;42.152;24.756;2023-11-22T03:02:14;29.60;;;16.77;;
7179;SDS011;3631;42.152;24.756;2023-11-22T03:04:42;28.33;;;17.23;;
7179;SDS011;3631;42.152;24.756;2023-11-22T03:07:08;30.60;;;16.83;;
7179;SDS011;3631;42.152;24.756;2023-11-22T03:09:36;26.70;;;17.60;;
7179;SDS011;3631;42.152;24.756;2023-11-22T03:12:03;34.43;;;17.93;;
7179;SDS011;3631;42.152;24.756;2023-11-22T03:14:31;28.30;;;16.93;;
7179;SDS011;3631;42.152;24.756;2023-11-22T03:16:59;29.23;;;17.67;;
7179;SDS011;3631;42.152;24.756;2023-11-22T03:19:27;28.60;;;17.67;;
7179;SDS011;3631;42.152;24.756;2023-11-22T03:21:54;28.27;;;17.17;;
7179;SDS011;3631;42.152;24.756;2023-11-22T03:24:22;25.83;;;16.90;;
7179;SDS011;3631;42.152;24.756;2023-11-22T03:29:24;25.97;;;17.57;;
7179;SDS011;3631;42.152;24.756;2023-11-22T03:31:51;26.37;;;17.63;;
7179;SDS011;3631;42.152;24.756;2023-11-22T03:34:20;29.47;;;17.03;;
7179;SDS011;3631;42.152;24.756;2023-11-22T03:36:47;28.73;;;17.63;;
7179;SDS011;3631;42.152;24.756;2023-11-22T03:39:14;29.67;;;17.57;;
7179;SDS011;3631;42.152;24.756;2023-11-22T03:41:41;27.87;;;17.23;;
7179;SDS011;3631;42.152;24.756;2023-11-22T03:44:09;30.00;;;17.73;;
7179;SDS011;3631;42.152;24.756;2023-11-22T03:46:36;24.80;;;17.67;;
7179;SDS011;3631;42.152;24.756;2023-11-22T03:49:03;28.80;;;17.83;;
7179;SDS011;3631;42.152;24.756;2023-11-22T03:51:33;29.27;;;18.40;;
7179;SDS011;3631;42.152;24.756;2023-11-22T03:54:00;25.83;;;17.40;;
7179;SDS011;3631;42.152;24.756;2023-11-22T03:56:28;25.40;;;16.87;;
7179;SDS011;3631;42.152;24.756;2023-11-22T03:58:55;32.80;;;16.93;;
7179;SDS011;3631;42.152;24.756;2023-11-22T04:01:22;28.97;;;17.93;;
7179;SDS011;3631;42.152;24.756;2023-11-22T04:03:49;31.30;;;17.60;;
7179;SDS011;3631;42.152;24.756;2023-11-22T04:06:17;26.20;;;17.27;;
7179;SDS011;3631;42.152;24.756;2023-11-22T04:08:45;31.10;;;18.70;;
7179;SDS011;3631;42.152;24.756;2023-11-22T04:11:13;28.40;;;17.63;;
7179;SDS011;3631;42.152;24.756;2023-11-22T04:13:40;30.43;;;18.93;;
7179;SDS011;3631;42.152;24.756;2023-11-22T04:16:07;28.80;;;17.73;;
7179;SDS011;3631;42.152;24.756;2023-11-22T04:18:37;24.07;;;17.27;;
7179;SDS011;3631;42.152;24.756;2023-11-22T04:21:04;32.80;;;18.07;;
7179;SDS011;3631;42.152;24.756;2023-11-22T04:23:31;30.83;;;18.10;;
7179;SDS011;3631;42.152;24.756;2023-11-22T04:26:00;33.33;;;18.83;;
7179;SDS011;3631;42.152;24.756;2023-11-22T04:28:27;26.77;;;17.43;;
7179;SDS011;3631;42.152;24.756;2023-11-22T04:30:56;29.60;;;18.10;;
7179;SDS011;3631;42.152;24.756;2023-11-22T04:33:23;31.43;;;19.43;;
7179;SDS011;3631;42.152;24.756;2023-11-22T04:35:50;38.43;;;20.70;;
7179;SDS011;3631;42.152;24.756;2023-11-22T04:38:17;35.67;;;20.20;;
7179;SDS011;3631;42.152;24.756;2023-11-22T04:40:44;36.10;;;21.57;;
7179;SDS011;3631;42.152;24.756;2023-11-22T04:43:12;28.87;;;19.53;;
7179;SDS011;3631;42.152;24.756;2023-11-22T04:45:40;34.90;;;19.07;;
7179;SDS011;3631;42.152;24.756;2023-11-22T04:48:06;27.40;;;18.37;;
7179;SDS011;3631;42.152;24.756;2023-11-22T04:50:33;30.97;;;18.13;;
7179;SDS011;3631;42.152;24.756;2023-11-22T04:53:00;30.27;;;17.10;;
7179;SDS011;3631;42.152;24.756;2023-11-22T04:55:28;22.57;;;16.17;;
7179;SDS011;3631;42.152;24.756;2023-11-22T04:57:55;29.50;;;16.40;;
7179;SDS011;3631;42.152;24.756;2023-11-22T05:00:23;31.77;;;17.27;;
7179;SDS011;3631;42.152;24.756;2023-11-22T05:02:50;22.07;;;15.70;;
7179;SDS011;3631;42.152;24.756;2023-11-22T05:05:17;24.53;;;16.13;;
7179;SDS011;3631;42.152;24.756;2023-11-22T05:07:44;23.87;;;15.57;;
7179;SDS011;3631;42.152;24.756;2023-11-22T05:10:11;24.33;;;15.43;;
7179;SDS011;3631;42.152;24.756;2023-11-22T05:12:38;26.40;;;15.20;;
7179;SDS011;3631;42.152;24.756;2023-11-22T05:15:05;26.70;;;16.37;;
7179;SDS011;3631;42.152;24.756;2023-11-22T05:17:34;26.47;;;15.77;;
7179;SDS011;3631;42.152;24.756;2023-11-22T05:20:01;24.90;;;14.80;;
7179;SDS011;3631;42.152;24.756;2023-11-22T05:22:30;22.13;;;15.23;;
7179;SDS011;3631;42.152;24.756;2023-11-22T05:24:57;24.97;;;15.00;;
7179;SDS011;3631;42.152;24.756;2023-11-22T05:27:24;26.53;;;14.97;;
7179;SDS011;3631;42.152;24.756;2023-11-22T05:29:51;27.33;;;17.23;;
7179;SDS011;3631;42.152;24.756;2023-11-22T05:32:18;27.73;;;17.20;;
7179;SDS011;3631;42.152;24.756;2023-11-22T05:34:45;27.83;;;17.00;;
7179;SDS011;3631;42.152;24.756;2023-11-22T05:37:13;28.77;;;17.33;;
7179;SDS011;3631;42.152;24.756;2023-11-22T05:39:39;30.07;;;18.23;;
7179;SDS011;3631;42.152;24.756;2023-11-22T05:42:06;31.30;;;18.30;;
7179;SDS011;3631;42.152;24.756;2023-11-22T05:44:33;31.40;;;18.47;;
7179;SDS011;3631;42.152;24.756;2023-11-22T05:47:00;32.50;;;17.20;;
7179;SDS011;3631;42.152;24.756;2023-11-22T05:49:27;32.20;;;18.00;;
7179;SDS011;3631;42.152;24.756;2023-11-22T05:51:56;29.47;;;17.40;;
7179;SDS011;3631;42.152;24.756;2023-11-22T05:54:24;23.80;;;17.23;;
7179;SDS011;3631;42.152;24.756;2023-11-22T05:56:51;29.23;;;17.27;;
7179;SDS011;3631;42.152;24.756;2023-11-22T05:59:19;26.70;;;17.97;;
7179;SDS011;3631;42.152;24.756;2023-11-22T06:01:46;29.93;;;18.00;;
7179;SDS011;3631;42.152;24.756;2023-11-22T06:04:13;27.37;;;16.53;;
7179;SDS011;3631;42.152;24.756;2023-11-22T06:06:40;26.57;;;16.70;;
7179;SDS011;3631;42.152;24.756;2023-11-22T06:09:09;24.90;;;16.83;;
7179;SDS011;3631;42.152;24.756;2023-11-22T06:11:39;25.60;;;15.63;;
7179;SDS011;3631;42.152;24.756;2023-11-22T06:14:06;31.70;;;15.30;;
7179;SDS011;3631;42.152;24.756;2023-11-22T06:16:33;27.10;;;15.23;;
7179;SDS011;3631;42.152;24.756;2023-11-22T06:19:00;30.63;;;16.43;;
7179;SDS011;3631;42.152;24.756;2023-11-22T06:21:27;33.23;;;17.50;;
7179;SDS011;3631;42.152;24.756;2023-11-22T06:23:54;29.03;;;16.97;;
7179;SDS011;3631;42.152;24.756;2023-11-22T06:26:24;23.47;;;16.20;;
7179;SDS011;3631;42.152;24.756;2023-11-22T06:28:51;27.80;;;16.43;;
7179;SDS011;3631;42.152;24.756;2023-11-22T06:31:18;31.73;;;18.57;;
7179;SDS011;3631;42.152;24.756;2023-11-22T06:33:45;43.37;;;20.50;;
7179;SDS011;3631;42.152;24.756;2023-11-22T06:36:12;34.20;;;19.23;;
7179;SDS011;3631;42.152;24.756;2023-11-22T06:38:40;27.07;;;17.37;;
7179;SDS011;3631;42.152;24.756;2023-11-22T06:41:07;27.23;;;16.37;;
7179;SDS011;3631;42.152;24.756;2023-11-22T06:43:35;26.07;;;16.40;;
7179;SDS011;3631;42.152;24.756;2023-11-22T06:46:02;27.37;;;16.03;;
7179;SDS011;3631;42.152;24.756;2023-11-22T06:48:31;24.70;;;15.43;;
7179;SDS011;3631;42.152;24.756;2023-11-22T06:50:59;23.67;;;14.20;;
7179;SDS011;3631;42.152;24.756;2023-11-22T06:53:26;24.53;;;15.27;;
7179;SDS011;3631;42.152;24.756;2023-11-22T06:55:53;31.10;;;17.37;;
7179;SDS011;3631;42.152;24.756;2023-11-22T06:58:19;30.07;;;19.40;;
7179;SDS011;3631;42.152;24.756;2023-11-22T07:00:48;36.13;;;23.30;;
7179;SDS011;3631;42.152;24.756;2023-11-22T07:03:15;42.47;;;26.20;;
7179;SDS011;3631;42.152;24.756;2023-11-22T07:05:42;47.47;;;24.30;;
7179;SDS011;3631;42.152;24.756;2023-11-22T07:08:09;39.87;;;21.13;;
7179;SDS011;3631;42.152;24.756;2023-11-22T07:10:37;36.10;;;21.13;;
7179;SDS011;3631;42.152;24.756;2023-11-22T07:13:04;24.60;;;16.90;;
7179;SDS011;3631;42.152;24.756;2023-11-22T07:15:31;29.50;;;17.50;;
7179;SDS011;3631;42.152;24.756;2023-11-22T07:17:59;32.07;;;17.50;;
7179;SDS011;3631;42.152;24.756;2023-11-22T07:20:27;38.30;;;15.40;;
7179;SDS011;3631;42.152;24.756;2023-11-22T07:22:54;31.87;;;15.87;;
7179;SDS011;3631;42.152;24.756;2023-11-22T07:25:22;23.37;;;16.17;;
7179;SDS011;3631;42.152;24.756;2023-11-22T07:27:51;25.53;;;16.97;;
7179;SDS011;3631;42.152;24.756;2023-11-22T07:30:19;30.10;;;16.83;;
7179;SDS011;3631;42.152;24.756;2023-11-22T07:32:48;24.83;;;16.53;;
7179;SDS011;3631;42.152;24.756;2023-11-22T07:35:18;29.27;;;17.63;;
7179;SDS011;3631;42.152;24.756;2023-11-22T07:37:46;31.93;;;18.30;;
7179;SDS011;3631;42.152;24.756;2023-11-22T07:40:15;30.33;;;19.77;;
7179;SDS011;3631;42.152;24.756;2023-11-22T07:42:44;34.83;;;20.33;;
7179;SDS011;3631;42.152;24.756;2023-11-22T07:45:11;31.57;;;20.40;;
7179;SDS011;3631;42.152;24.756;2023-11-22T07:47:38;26.70;;;18.53;;
7179;SDS011;3631;42.152;24.756;2023-11-22T07:50:07;33.13;;;19.70;;
7179;SDS011;3631;42.152;24.756;2023-11-22T07:52:39;28.20;;;18.63;;
7179;SDS011;3631;42.152;24.756;2023-11-22T07:55:07;31.23;;;18.53;;
7179;SDS011;3631;42.152;24.756;2023-11-22T07:57:35;34.80;;;19.17;;
7179;SDS011;3631;42.152;24.756;2023-11-22T08:00:02;30.80;;;20.07;;
7179;SDS011;3631;42.152;24.756;2023-11-22T08:02:32;32.60;;;19.80;;
7179;SDS011;3631;42.152;24.756;2023-11-22T08:04:59;33.13;;;19.43;;
7179;SDS011;3631;42.152;24.756;2023-11-22T08:07:28;45.50;;;26.37;;
7179;SDS011;3631;42.152;24.756;2023-11-22T08:09:59;53.53;;;28.57;;
7179;SDS011;3631;42.152;24.756;2023-11-22T08:12:34;44.33;;;22.13;;
7179;SDS011;3631;42.152;24.756;2023-11-22T08:15:02;32.63;;;19.50;;
7179;SDS011;3631;42.152;24.756;2023-11-22T08:17:30;35.50;;;20.37;;
7179;SDS011;3631;42.152;24.756;2023-11-22T08:19:57;33.73;;;20.17;;
7179;SDS011;3631;42.152;24.756;2023-11-22T08:22:25;35.87;;;20.97;;
7179;SDS011;3631;42.152;24.756;2023-11-22T08:24:54;37.97;;;21.70;;
7179;SDS011;3631;42.152;24.756;2023-11-22T08:27:24;41.40;;;22.10;;
7179;SDS011;3631;42.152;24.756;2023-11-22T08:29:51;42.17;;;23.27;;
7179;SDS011;3631;42.152;24.756;2023-11-22T08:32:18;52.03;;;23.73;;
7179;SDS011;3631;42.152;24.756;2023-11-22T08:34:48;37.20;;;22.73;;
7179;SDS011;3631;42.152;24.756;2023-11-22T08:37:15;44.43;;;22.83;;
7179;SDS011;3631;42.152;24.756;2023-11-22T08:39:42;38.80;;;23.23;;
7179;SDS011;3631;42.152;24.756;2023-11-22T08:42:12;37.37;;;22.50;;
7179;SDS011;3631;42.152;24.756;2023-11-22T08:44:40;38.57;;;22.53;;
7179;SDS011;3631;42.152;24.756;2023-11-22T08:47:07;40.23;;;22.67;;
7179;SDS011;3631;42.152;24.756;2023-11-22T08:49:36;38.23;;;22.93;;
7179;SDS011;3631;42.152;24.756;2023-11-22T08:52:07;40.33;;;22.83;;
7179;SDS011;3631;42.152;24.756;2023-11-22T08:54:35;46.27;;;21.73;;
7179;SDS011;3631;42.152;24.756;2023-11-22T08:57:04;47.53;;;26.23;;
7179;SDS011;3631;42.152;24.756;2023-11-22T08:59:33;42.97;;;25.57;;
7179;SDS011;3631;42.152;24.756;2023-11-22T09:02:05;42.67;;;24.63;;
7179;SDS011;3631;42.152;24.756;2023-11-22T09:04:33;49.00;;;26.90;;
7179;SDS011;3631;42.152;24.756;2023-11-22T09:07:01;46.07;;;27.83;;
7179;SDS011;3631;42.152;24.756;2023-11-22T09:09:28;44.47;;;25.97;;
7179;SDS011;3631;42.152;24.756;2023-11-22T09:11:57;50.17;;;25.03;;
7179;SDS011;3631;42.152;24.756;2023-11-22T09:14:24;51.90;;;26.20;;
7179;SDS011;3631;42.152;24.756;2023-11-22T09:16:51;45.50;;;25.23;;
7179;SDS011;3631;42.152;24.756;2023-11-22T09:19:21;34.33;;;22.47;;
7179;SDS011;3631;42.152;24.756;2023-11-22T09:21:51;43.13;;;23.67;;
7179;SDS011;3631;42.152;24.756;2023-11-22T09:24:18;36.50;;;20.90;;
7179;SDS011;3631;42.152;24.756;2023-11-22T09:26:45;36.83;;;21.73;;
7179;SDS011;3631;42.152;24.756;2023-11-22T09:29:12;39.03;;;20.00;;
7179;SDS011;3631;42.152;24.756;2023-11-22T09:31:39;31.23;;;20.33;;
7179;SDS011;3631;42.152;24.756;2023-11-22T09:34:07;33.40;;;20.30;;
7179;SDS011;3631;42.152;24.756;2023-11-22T09:36:36;34.87;;;19.80;;
7179;SDS011;3631;42.152;24.756;2023-11-22T09:39:03;35.13;;;19.93;;
7179;SDS011;3631;42.152;24.756;2023-11-22T09:41:33;32.30;;;18.40;;
7179;SDS011;3631;42.152;24.756;2023-11-22T09:44:00;29.47;;;18.43;;
7179;SDS011;3631;42.152;24.756;2023-11-22T09:46:28;33.93;;;18.13;;
7179;SDS011;3631;42.152;24.756;2023-11-22T09:48:59;25.13;;;17.50;;
7179;SDS011;3631;42.152;24.756;2023-11-22T09:51:29;29.97;;;17.50;;
7179;SDS011;3631;42.152;24.756;2023-11-22T09:54:00;26.77;;;16.77;;
7179;SDS011;3631;42.152;24.756;2023-11-22T09:56:33;28.40;;;17.77;;
7179;SDS011;3631;42.152;24.756;2023-11-22T09:59:03;26.00;;;16.67;;
7179;SDS011;3631;42.152;24.756;2023-11-22T10:01:31;37.10;;;20.47;;
7179;SDS011;3631;42.152;24.756;2023-11-22T10:04:02;35.53;;;18.43;;
7179;SDS011;3631;42.152;24.756;2023-11-22T10:06:30;27.17;;;17.67;;
7179;SDS011;3631;42.152;24.756;2023-11-22T10:09:02;28.00;;;16.43;;
7179;SDS011;3631;42.152;24.756;2023-11-22T10:11:32;26.27;;;16.87;;
7179;SDS011;3631;42.152;24.756;2023-11-22T10:14:01;28.13;;;17.90;;
7179;SDS011;3631;42.152;24.756;2023-11-22T10:16:28;24.60;;;16.63;;
7179;SDS011;3631;42.152;24.756;2023-11-22T10:18:55;26.00;;;16.60;;
7179;SDS011;3631;42.152;24.756;2023-11-22T10:21:24;24.60;;;16.57;;
7179;SDS011;3631;42.152;24.756;2023-11-22T10:23:53;26.17;;;17.30;;
7179;SDS011;3631;42.152;24.756;2023-11-22T10:26:23;37.43;;;18.60;;
7179;SDS011;3631;42.152;24.756;2023-11-22T10:28:52;27.90;;;19.70;;
7179;SDS011;3631;42.152;24.756;2023-11-22T10:31:19;36.03;;;19.77;;
7179;SDS011;3631;42.152;24.756;2023-11-22T10:33:47;32.60;;;19.70;;
7179;SDS011;3631;42.152;24.756;2023-11-22T10:36:14;28.33;;;17.87;;
7179;SDS011;3631;42.152;24.756;2023-11-22T10:38:45;32.10;;;18.97;;
7179;SDS011;3631;42.152;24.756;2023-11-22T10:41:12;31.47;;;18.20;;
7179;SDS011;3631;42.152;24.756;2023-11-22T10:43:41;28.50;;;19.10;;
7179;SDS011;3631;42.152;24.756;2023-11-22T10:46:09;31.83;;;19.50;;
7179;SDS011;3631;42.152;24.756;2023-11-22T10:48:39;27.07;;;19.43;;
7179;SDS011;3631;42.152;24.756;2023-11-22T10:51:06;33.27;;;17.93;;
7179;SDS011;3631;42.152;24.756;2023-11-22T10:53:42;23.83;;;16.97;;
7179;SDS011;3631;42.152;24.756;2023-11-22T10:56:15;28.30;;;17.30;;
7179;SDS011;3631;42.152;24.756;2023-11-22T10:58:48;25.43;;;16.30;;
7179;SDS011;3631;42.152;24.756;2023-11-22T11:01:16;22.40;;;16.23;;
7179;SDS011;3631;42.152;24.756;2023-11-22T11:03:45;21.03;;;15.37;;
7179;SDS011;3631;42.152;24.756;2023-11-22T11:06:19;22.00;;;14.03;;
7179;SDS011;3631;42.152;24.756;2023-11-22T11:08:52;21.47;;;15.87;;
7179;SDS011;3631;42.152;24.756;2023-11-22T11:11:21;23.23;;;14.20;;
7179;SDS011;3631;42.152;24.756;2023-11-22T11:13:50;25.77;;;15.10;;
7179;SDS011;3631;42.152;24.756;2023-11-22T11:16:19;18.93;;;14.47;;
7179;SDS011;3631;42.152;24.756;2023-11-22T11:18:46;27.20;;;14.80;;
7179;SDS011;3631;42.152;24.756;2023-11-22T11:21:14;23.27;;;15.10;;
7179;SDS011;3631;42.152;24.756;2023-11-22T11:23:44;23.67;;;14.63;;
7179;SDS011;3631;42.152;24.756;2023-11-22T11:26:14;31.67;;;18.83;;
7179;SDS011;3631;42.152;24.756;2023-11-22T11:28:43;29.33;;;18.20;;
7179;SDS011;3631;42.152;24.756;2023-11-22T11:31:12;23.33;;;16.47;;
7179;SDS011;3631;42.152;24.756;2023-11-22T11:33:53;27.77;;;17.40;;
7179;SDS011;3631;42.152;24.756;2023-11-22T11:36:21;26.07;;;19.03;;
7179;SDS011;3631;42.152;24.756;2023-11-22T11:38:50;36.27;;;22.73;;
7179;SDS011;3631;42.152;24.756;2023-11-22T11:41:17;61.70;;;37.97;;
7179;SDS011;3631;42.152;24.756;2023-11-22T11:43:45;50.83;;;28.40;;
7179;SDS011;3631;42.152;24.756;2023-11-22T11:46:14;31.33;;;20.53;;
7179;SDS011;3631;42.152;24.756;2023-11-22T11:48:43;28.67;;;17.53;;
7179;SDS011;3631;42.152;24.756;2023-11-22T11:51:13;28.33;;;18.73;;
7179;SDS011;3631;42.152;24.756;2023-11-22T11:53:41;25.53;;;18.50;;
7179;SDS011;3631;42.152;24.756;2023-11-22T11:56:09;23.90;;;17.23;;
7179;SDS011;3631;42.152;24.756;2023-11-22T11:58:36;22.60;;;14.47;;
7179;SDS011;3631;42.152;24.756;2023-11-22T12:01:04;29.53;;;18.40;;
7179;SDS011;3631;42.152;24.756;2023-11-22T12:03:33;50.40;;;34.83;;
7179;SDS011;3631;42.152;24.756;2023-11-22T12:06:01;48.83;;;32.37;;
7179;SDS011;3631;42.152;24.756;2023-11-22T12:08:29;42.17;;;26.17;;
7179;SDS011;3631;42.152;24.756;2023-11-22T12:11:01;26.93;;;19.93;;
7179;SDS011;3631;42.152;24.756;2023-11-22T12:13:29;24.53;;;15.87;;
7179;SDS011;3631;42.152;24.756;2023-11-22T12:15:57;24.70;;;16.03;;
7179;SDS011;3631;42.152;24.756;2023-11-22T12:18:24;19.67;;;15.30;;
7179;SDS011;3631;42.152;24.756;2023-11-22T12:20:55;22.17;;;14.97;;
7179;SDS011;3631;42.152;24.756;2023-11-22T12:23:23;24.70;;;16.17;;
7179;SDS011;3631;42.152;24.756;2023-11-22T12:25:55;26.27;;;16.37;;
7179;SDS011;3631;42.152;24.756;2023-11-22T12:28:23;21.87;;;15.93;;
7179;SDS011;3631;42.152;24.756;2023-11-22T12:30:52;21.23;;;15.40;;
7179;SDS011;3631;42.152;24.756;2023-11-22T12:33:19;21.87;;;15.00;;
7179;SDS011;3631;42.152;24.756;2023-11-22T12:35:47;20.63;;;14.40;;
7179;SDS011;3631;42.152;24.756;2023-11-22T12:38:16;20.93;;;13.23;;
7179;SDS011;3631;42.152;24.756;2023-11-22T12:40:43;19.17;;;13.60;;
7179;SDS011;3631;42.152;24.756;2023-11-22T12:43:12;17.63;;;13.67;;
7179;SDS011;3631;42.152;24.756;2023-11-22T12:45:39;20.83;;;13.63;;
7179;SDS011;3631;42.152;24.756;2023-11-22T12:48:19;25.00;;;15.50;;
7179;SDS011;3631;42.152;24.756;2023-11-22T12:50:48;22.87;;;14.63;;
7179;SDS011;3631;42.152;24.756;2023-11-22T12:53:17;21.33;;;15.27;;
7179;SDS011;3631;42.152;24.756;2023-11-22T12:55:47;20.47;;;14.47;;
7179;SDS011;3631;42.152;24.756;2023-11-22T12:58:15;19.63;;;13.97;;
7179;SDS011;3631;42.152;24.756;2023-11-22T13:00:43;23.40;;;14.63;;
7179;SDS011;3631;42.152;24.756;2023-11-22T13:03:11;22.23;;;14.50;;
7179;SDS011;3631;42.152;24.756;2023-11-22T13:05:38;23.43;;;13.90;;
7179;SDS011;3631;42.152;24.756;2023-11-22T13:08:08;21.47;;;13.63;;
7179;SDS011;3631;42.152;24.756;2023-11-22T13:10:39;21.33;;;14.10;;
7179;SDS011;3631;42.152;24.756;2023-11-22T13:13:06;19.33;;;13.60;;
7179;SDS011;3631;42.152;24.756;2023-11-22T13:15:35;20.00;;;13.97;;
7179;SDS011;3631;42.152;24.756;2023-11-22T13:18:02;18.83;;;13.23;;
7179;SDS011;3631;42.152;24.756;2023-11-22T13:20:31;17.40;;;12.83;;
7179;SDS011;3631;42.152;24.756;2023-11-22T13:22:59;19.43;;;13.90;;
7179;SDS011;3631;42.152;24.756;2023-11-22T13:25:27;21.77;;;15.13;;
7179;SDS011;3631;42.152;24.756;2023-11-22T13:27:56;23.17;;;14.67;;
7179;SDS011;3631;42.152;24.756;2023-11-22T13:30:24;20.90;;;14.87;;
7179;SDS011;3631;42.152;24.756;2023-11-22T13:32:51;22.30;;;14.73;;
7179;SDS011;3631;42.152;24.756;2023-11-22T13:35:19;24.57;;;15.90;;
7179;SDS011;3631;42.152;24.756;2023-11-22T13:37:47;39.00;;;19.23;;
7179;SDS011;3631;42.152;24.756;2023-11-22T13:40:14;37.67;;;17.30;;
7179;SDS011;3631;42.152;24.756;2023-11-22T13:42:43;31.93;;;17.63;;
7179;SDS011;3631;42.152;24.756;2023-11-22T13:45:12;24.30;;;16.40;;
7179;SDS011;3631;42.152;24.756;2023-11-22T13:47:42;22.50;;;15.10;;
7179;SDS011;3631;42.152;24.756;2023-11-22T13:50:12;23.77;;;15.53;;
7179;SDS011;3631;42.152;24.756;2023-11-22T13:52:40;24.47;;;14.87;;
7179;SDS011;3631;42.152;24.756;2023-11-22T13:55:08;22.53;;;15.27;;
7179;SDS011;3631;42.152;24.756;2023-11-22T13:57:37;27.63;;;16.17;;
7179;SDS011;3631;42.152;24.756;2023-11-22T14:00:05;23.43;;;16.10;;
7179;SDS011;3631;42.152;24.756;2023-11-22T14:02:39;22.80;;;15.67;;
7179;SDS011;3631;42.152;24.756;2023-11-22T14:05:07;21.97;;;16.00;;
7179;SDS011;3631;42.152;24.756;2023-11-22T14:07:37;24.10;;;15.17;;
7179;SDS011;3631;42.152;24.756;2023-11-22T14:10:07;35.33;;;16.53;;
7179;SDS011;3631;42.152;24.756;2023-11-22T14:12:36;25.17;;;15.53;;
7179;SDS011;3631;42.152;24.756;2023-11-22T14:15:04;29.20;;;16.30;;
7179;SDS011;3631;42.152;24.756;2023-11-22T14:17:31;33.03;;;19.53;;
7179;SDS011;3631;42.152;24.756;2023-11-22T14:20:02;31.97;;;19.87;;
7179;SDS011;3631;42.152;24.756;2023-11-22T14:22:30;27.60;;;18.13;;
7179;SDS011;3631;42.152;24.756;2023-11-22T14:24:58;30.30;;;17.77;;
7179;SDS011;3631;42.152;24.756;2023-11-22T14:27:26;32.60;;;18.93;;
7179;SDS011;3631;42.152;24.756;2023-11-22T14:32:39;32.33;;;19.50;;
7179;SDS011;3631;42.152;24.756;2023-11-22T14:35:14;31.90;;;19.50;;
7179;SDS011;3631;42.152;24.756;2023-11-22T14:37:43;28.57;;;20.97;;
7179;SDS011;3631;42.152;24.756;2023-11-22T14:40:10;29.20;;;20.23;;
7179;SDS011;3631;42.152;24.756;2023-11-22T14:42:39;37.10;;;21.37;;
7179;SDS011;3631;42.152;24.756;2023-11-22T14:45:07;45.70;;;22.73;;